Hawthorne, Nevada
Current Conditions -  °F | °C
As of 5:56 PM on Monday 20 Oct 2014 (Local Time) from KNFL Reporting Station
Broken Clouds Broken Clouds  
Wind Chill: 72°   Ceiling: 22000
Heat Index: 72°   Visibility: 10mi
Dew Point: 30°   Wind: 5mph
Humidity: 21%   Direction: 260°W
Pressure: 29.79"   Gusts: NA
Location:  38.52°N, 118.63°W
Report Text: KNFL 210056Z 26004KT 10SM FEW070 FEW120 BKN220 22/M01 A2979 RMK AO2 SLP065 T02221011
Loading
Personal Weather Stations






























Interactive Weather Map
Tropical Storm Tracking
New forecast layout! Learn more

10-Day Weather Forecast

Advertisements
Track Severe Weather on mobile